createdAt,value
2019-05-13T00:00:46.555Z,10.00
2019-05-13T00:03:15.243Z,10.00
2019-05-13T00:05:44.506Z,9.90
2019-05-13T00:08:14.102Z,9.90
2019-05-13T00:10:44.209Z,9.90
2019-05-13T00:13:14.760Z,9.80
2019-05-13T00:15:44.249Z,9.80
2019-05-13T00:18:14.459Z,9.80
2019-05-13T00:20:44.285Z,9.80
2019-05-13T00:23:16.142Z,9.70
2019-05-13T00:25:44.828Z,9.70
2019-05-13T00:28:14.473Z,9.60
2019-05-13T00:30:44.484Z,9.60
2019-05-13T00:33:14.001Z,9.50
2019-05-13T00:35:44.283Z,9.50
2019-05-13T00:38:14.084Z,9.40
2019-05-13T00:40:44.324Z,9.40
2019-05-13T00:43:14.308Z,9.30
2019-05-13T00:45:44.430Z,9.30
2019-05-13T00:48:14.361Z,9.30
2019-05-13T00:50:44.310Z,9.20
2019-05-13T00:53:13.603Z,9.20
2019-05-13T00:55:44.518Z,9.20
2019-05-13T00:58:14.151Z,9.10
2019-05-13T01:00:44.671Z,9.10
2019-05-13T01:03:14.469Z,9.10
2019-05-13T01:05:44.482Z,9.00
2019-05-13T01:08:14.578Z,9.00
2019-05-13T01:10:45.198Z,8.90
2019-05-13T01:13:14.082Z,8.90
2019-05-13T01:15:44.291Z,8.90
2019-05-13T01:18:14.289Z,8.80
2019-05-13T01:20:43.817Z,8.80
2019-05-13T01:23:14.172Z,8.70
2019-05-13T01:25:44.423Z,8.70
2019-05-13T01:28:13.746Z,8.70
2019-05-13T01:30:43.835Z,8.60
2019-05-13T01:33:14.455Z,8.60
2019-05-13T01:35:44.480Z,8.60
2019-05-13T01:38:14.134Z,8.50
2019-05-13T01:40:43.985Z,8.50
2019-05-13T01:43:14.453Z,8.50
2019-05-13T01:45:44.104Z,8.50
2019-05-13T01:48:14.213Z,8.40
2019-05-13T01:50:44.476Z,8.40
2019-05-13T01:53:14.620Z,8.40
2019-05-13T01:55:44.356Z,8.40
2019-05-13T01:58:14.601Z,8.40
2019-05-13T02:00:44.440Z,8.30
2019-05-13T02:03:14.457Z,8.30
2019-05-13T02:05:44.330Z,8.20
2019-05-13T02:08:14.275Z,8.20
2019-05-13T02:11:08.627Z,8.20
2019-05-13T02:13:37.378Z,8.20
2019-05-13T02:16:06.293Z,8.20
2019-05-13T02:18:35.512Z,8.20
2019-05-13T02:21:05.514Z,8.20
2019-05-13T02:23:34.780Z,8.10
2019-05-13T02:26:04.552Z,8.10
2019-05-13T02:28:33.617Z,8.10
2019-05-13T02:31:02.401Z,8.00
2019-05-13T02:33:33.944Z,8.00
2019-05-13T02:36:02.895Z,8.00
2019-05-13T02:38:35.448Z,8.00
2019-05-13T02:41:03.043Z,8.00
2019-05-13T02:43:33.311Z,7.90
2019-05-13T02:46:04.159Z,7.90
2019-05-13T02:48:33.418Z,7.90
2019-05-13T02:51:03.673Z,7.90
2019-05-13T02:53:33.497Z,7.90
2019-05-13T02:56:03.291Z,7.90
2019-05-13T02:58:33.264Z,7.80
2019-05-13T03:01:03.264Z,7.80
2019-05-13T03:03:33.123Z,7.80
2019-05-13T03:06:03.134Z,7.70
2019-05-13T03:08:41.082Z,7.70
2019-05-13T03:11:03.120Z,7.70
2019-05-13T03:13:32.974Z,7.60
2019-05-13T03:16:13.175Z,7.60
2019-05-13T03:18:43.560Z,7.60
2019-05-13T03:21:13.018Z,7.60
2019-05-13T03:23:44.168Z,7.60
2019-05-13T03:26:13.210Z,7.60
2019-05-13T03:28:43.947Z,7.60
2019-05-13T03:31:17.140Z,7.70
2019-05-13T03:33:46.487Z,7.80
2019-05-13T03:36:16.581Z,8.00
2019-05-13T03:38:59.680Z,8.30
2019-05-13T03:41:17.244Z,8.60
2019-05-13T03:43:46.071Z,8.90
2019-05-13T03:46:14.967Z,9.10
2019-05-13T03:48:44.487Z,9.60
2019-05-13T03:51:13.956Z,9.90
2019-05-13T03:53:43.568Z,10.30
2019-05-13T03:56:13.262Z,10.60
2019-05-13T03:58:43.538Z,11.00
2019-05-13T04:01:13.305Z,11.40
2019-05-13T04:03:43.969Z,11.70
2019-05-13T04:06:13.989Z,12.10
2019-05-13T04:08:43.878Z,12.50
2019-05-13T04:11:13.339Z,12.70
2019-05-13T04:13:43.051Z,12.90
2019-05-13T04:16:13.019Z,13.00
2019-05-13T04:18:42.854Z,13.30
2019-05-13T04:21:13.018Z,13.50
2019-05-13T04:23:42.949Z,13.80
2019-05-13T04:26:14.986Z,14.40
2019-05-13T04:28:43.531Z,14.80
2019-05-13T04:31:14.780Z,15.10
2019-05-13T04:33:44.553Z,15.40
2019-05-13T04:36:13.894Z,15.10
2019-05-13T04:38:44.520Z,14.90
2019-05-13T04:41:14.107Z,15.40
2019-05-13T04:43:44.121Z,15.90
2019-05-13T04:46:14.216Z,16.30
2019-05-13T04:48:44.526Z,16.40
2019-05-13T04:51:14.006Z,16.50
2019-05-13T04:53:43.845Z,16.90
2019-05-13T04:56:14.248Z,17.00
2019-05-13T04:58:43.570Z,17.50
2019-05-13T05:02:04.655Z,18.00
2019-05-13T05:05:02.980Z,18.40
2019-05-13T05:07:42.040Z,18.20
2019-05-13T05:10:42.889Z,18.40
2019-05-13T05:13:56.697Z,18.60
2019-05-13T05:16:47.665Z,18.50
2019-05-13T05:19:44.918Z,19.00
2019-05-13T05:22:39.122Z,18.90
2019-05-13T05:25:29.314Z,18.80
2019-05-13T05:28:51.922Z,18.90
2019-05-13T05:31:41.327Z,19.20
2019-05-13T05:35:12.740Z,19.80
2019-05-13T05:38:18.697Z,20.10
2019-05-13T05:40:48.529Z,20.70
2019-05-13T05:43:22.309Z,20.70
2019-05-13T05:45:53.350Z,20.80
2019-05-13T05:48:23.054Z,21.00
2019-05-13T05:50:54.557Z,21.10
2019-05-13T05:53:26.231Z,21.20
2019-05-13T05:55:59.530Z,21.30
2019-05-13T05:58:31.542Z,21.30
2019-05-13T06:01:02.611Z,21.60
2019-05-13T06:03:33.284Z,22.20
2019-05-13T06:06:02.520Z,23.00
2019-05-13T06:08:32.303Z,23.10
2019-05-13T06:11:01.390Z,23.30
2019-05-13T06:13:31.577Z,23.60
2019-05-13T06:16:01.849Z,23.60
2019-05-13T06:18:32.507Z,24.30
2019-05-13T06:21:01.807Z,24.60
2019-05-13T06:23:31.346Z,25.00
2019-05-13T06:26:02.225Z,24.60
2019-05-13T06:28:32.269Z,24.20
2019-05-13T06:31:02.546Z,23.90
2019-05-13T06:33:32.131Z,24.20
2019-05-13T06:36:01.359Z,24.20
2019-05-13T06:38:31.603Z,24.50
2019-05-13T06:41:07.111Z,25.30
2019-05-13T06:43:31.581Z,25.70
2019-05-13T06:46:01.856Z,25.80
2019-05-13T06:48:32.330Z,25.60
2019-05-13T06:51:02.552Z,26.00
2019-05-13T06:53:32.257Z,25.70
2019-05-13T06:56:01.713Z,25.90
2019-05-13T06:58:32.555Z,26.00
2019-05-13T07:01:03.699Z,26.30
2019-05-13T07:03:32.410Z,26.70
2019-05-13T07:06:01.884Z,27.00
2019-05-13T07:08:31.521Z,27.30
2019-05-13T07:11:17.170Z,28.00
2019-05-13T07:13:32.273Z,27.90
2019-05-13T07:16:01.430Z,27.90
2019-05-13T07:18:32.193Z,27.80
2019-05-13T07:21:02.242Z,28.30
2019-05-13T07:23:31.960Z,29.10
2019-05-13T07:26:01.772Z,29.80
2019-05-13T07:28:32.281Z,29.90
2019-05-13T07:31:02.130Z,30.20
2019-05-13T07:33:32.016Z,29.50
2019-05-13T07:36:03.043Z,28.50
2019-05-13T07:38:32.921Z,28.70
2019-05-13T07:41:03.327Z,27.90
2019-05-13T07:43:32.287Z,27.70
2019-05-13T07:46:02.070Z,27.90
2019-05-13T07:48:31.868Z,28.20
2019-05-13T07:51:04.211Z,28.10
2019-05-13T07:53:32.333Z,28.50
2019-05-13T07:56:03.348Z,29.40
2019-05-13T07:58:37.226Z,30.20
2019-05-13T08:01:02.674Z,30.70
2019-05-13T08:03:31.774Z,29.90
2019-05-13T08:06:01.967Z,29.40
2019-05-13T08:08:32.339Z,30.00
2019-05-13T08:11:01.544Z,30.20
2019-05-13T08:13:31.457Z,29.70
2019-05-13T08:16:01.956Z,28.80
2019-05-13T08:18:31.931Z,28.30
2019-05-13T08:21:02.102Z,28.20
2019-05-13T08:23:32.339Z,28.10
2019-05-13T08:26:02.153Z,28.90
2019-05-13T08:28:32.361Z,29.70
2019-05-13T08:31:02.200Z,30.30
2019-05-13T08:33:32.079Z,28.60
2019-05-13T08:36:01.756Z,28.30
2019-05-13T08:38:32.014Z,28.40
2019-05-13T08:41:01.871Z,29.80
2019-05-13T08:43:31.615Z,29.60
2019-05-13T08:46:01.909Z,29.30
2019-05-13T08:48:32.300Z,29.20
2019-05-13T08:51:03.199Z,29.40
2019-05-13T08:53:31.913Z,29.70
2019-05-13T08:56:01.646Z,28.80
2019-05-13T08:58:32.105Z,28.60
2019-05-13T09:01:02.121Z,28.40
2019-05-13T09:03:32.601Z,27.20
2019-05-13T09:06:02.817Z,25.70
2019-05-13T09:08:32.084Z,26.00
2019-05-13T09:11:01.740Z,26.10
2019-05-13T09:13:32.951Z,26.50
2019-05-13T09:16:02.585Z,27.40
2019-05-13T09:18:32.251Z,28.30
2019-05-13T09:21:02.517Z,28.80
2019-05-13T09:23:31.707Z,27.70
2019-05-13T09:26:02.519Z,25.50
2019-05-13T09:28:32.498Z,23.60
2019-05-13T09:31:02.120Z,23.50
2019-05-13T09:33:32.552Z,24.50
2019-05-13T09:36:02.322Z,25.30
2019-05-13T09:38:32.607Z,24.80
2019-05-13T09:41:02.829Z,24.10
2019-05-13T09:43:31.749Z,24.50
2019-05-13T09:46:01.727Z,24.80
2019-05-13T09:48:31.919Z,23.20
2019-05-13T09:51:02.395Z,22.10
2019-05-13T09:53:32.547Z,22.60
2019-05-13T09:56:02.382Z,23.00
2019-05-13T09:58:33.044Z,23.50
2019-05-13T10:01:01.762Z,23.50
2019-05-13T10:03:33.021Z,23.40
2019-05-13T10:06:02.421Z,21.90
2019-05-13T10:08:32.825Z,20.80
2019-05-13T10:11:02.044Z,20.20
2019-05-13T10:13:31.755Z,19.20
2019-05-13T10:16:01.306Z,18.60
2019-05-13T10:18:32.441Z,18.20
2019-05-13T10:21:02.048Z,18.30
2019-05-13T10:23:33.002Z,18.60
2019-05-13T10:26:04.727Z,18.60
2019-05-13T10:28:34.084Z,18.70
2019-05-13T10:31:02.880Z,18.10
2019-05-13T10:33:32.358Z,18.00
2019-05-13T10:36:03.529Z,18.00
2019-05-13T10:38:32.957Z,17.20
2019-05-13T10:41:03.276Z,17.30
2019-05-13T10:43:32.786Z,17.70
2019-05-13T10:46:03.174Z,17.90
2019-05-13T10:48:32.260Z,18.30
2019-05-13T10:51:02.184Z,18.10
2019-05-13T10:53:32.248Z,17.70
2019-05-13T10:56:03.212Z,17.70
2019-05-13T10:58:31.621Z,17.40
2019-05-13T11:01:02.858Z,17.50
2019-05-13T11:03:32.935Z,17.60
2019-05-13T11:06:01.610Z,17.30
2019-05-13T11:08:33.070Z,17.60
2019-05-13T11:11:02.166Z,17.90
2019-05-13T11:13:49.519Z,18.30
2019-05-13T11:16:04.753Z,18.50
2019-05-13T11:18:35.472Z,18.60
2019-05-13T11:21:04.806Z,18.40
2019-05-13T11:23:33.765Z,18.50
2019-05-13T11:26:03.352Z,18.70
2019-05-13T11:28:32.233Z,18.40
2019-05-13T11:31:03.349Z,18.20
2019-05-13T11:33:32.029Z,18.20
2019-05-13T11:36:03.215Z,18.00
2019-05-13T11:38:32.921Z,17.40
2019-05-13T11:41:02.553Z,17.20
2019-05-13T11:43:33.232Z,17.00
2019-05-13T11:46:02.530Z,17.20
2019-05-13T11:48:32.563Z,16.60
2019-05-13T11:51:03.803Z,16.40
2019-05-13T11:53:34.552Z,16.50
2019-05-13T11:56:03.563Z,16.80
2019-05-13T11:58:32.932Z,16.90
2019-05-13T12:01:02.998Z,17.10
2019-05-13T12:03:32.665Z,16.90
2019-05-13T12:06:02.600Z,16.70
2019-05-13T12:08:34.037Z,16.60
2019-05-13T12:11:04.313Z,16.40
2019-05-13T12:13:33.238Z,16.50
2019-05-13T12:16:03.611Z,16.80
2019-05-13T12:18:33.030Z,17.10
2019-05-13T12:21:03.540Z,17.40
2019-05-13T12:23:32.697Z,17.20
2019-05-13T12:26:04.158Z,17.20
2019-05-13T12:28:32.299Z,16.80
2019-05-13T12:31:03.243Z,16.50
2019-05-13T12:33:32.705Z,16.50
2019-05-13T12:36:02.204Z,17.00
2019-05-13T12:38:33.090Z,17.60
2019-05-13T12:41:05.017Z,17.90
2019-05-13T12:43:32.451Z,18.00
2019-05-13T12:46:02.421Z,17.90
2019-05-13T12:48:31.404Z,17.80
2019-05-13T12:51:03.305Z,17.80
2019-05-13T12:53:32.705Z,17.60
2019-05-13T12:56:03.349Z,17.50
2019-05-13T12:58:33.978Z,17.40
2019-05-13T13:01:02.839Z,17.00
2019-05-13T13:03:32.310Z,16.90
2019-05-13T13:06:22.572Z,17.20
2019-05-13T13:08:42.875Z,17.60
2019-05-13T13:11:03.436Z,17.80
2019-05-13T13:13:56.592Z,17.80
2019-05-13T13:16:06.578Z,17.70
2019-05-13T13:18:35.551Z,17.60
2019-05-13T13:21:07.384Z,17.00
2019-05-13T13:23:35.134Z,16.60
2019-05-13T13:26:04.066Z,16.40
2019-05-13T13:28:34.119Z,16.60
2019-05-13T13:31:04.288Z,16.60
2019-05-13T13:33:34.343Z,16.60
2019-05-13T13:36:06.636Z,16.60
2019-05-13T13:38:35.667Z,16.60
2019-05-13T13:41:04.558Z,16.80
2019-05-13T13:43:36.897Z,16.90
2019-05-13T13:46:11.790Z,16.50
2019-05-13T13:48:34.382Z,16.30
2019-05-13T13:51:05.012Z,16.30
2019-05-13T13:53:34.985Z,16.40
2019-05-13T13:56:04.004Z,16.90
2019-05-13T13:58:32.949Z,17.40
2019-05-13T14:01:11.570Z,17.80
2019-05-13T14:03:33.850Z,17.80
2019-05-13T14:06:06.368Z,17.90
2019-05-13T14:08:33.938Z,18.00
2019-05-13T14:11:02.715Z,17.90
2019-05-13T14:13:32.477Z,17.60
2019-05-13T14:16:01.945Z,16.80
2019-05-13T14:18:31.845Z,16.50
2019-05-13T14:21:03.108Z,16.30
2019-05-13T14:23:31.884Z,16.20
2019-05-13T14:26:00.816Z,16.20
2019-05-13T14:28:32.498Z,16.40
2019-05-13T14:31:01.901Z,16.60
2019-05-13T14:33:32.707Z,16.70
2019-05-13T14:36:01.702Z,16.70
2019-05-13T14:38:32.569Z,16.60
2019-05-13T14:41:03.076Z,16.60
2019-05-13T14:43:32.011Z,16.50
2019-05-13T14:46:02.381Z,16.40
2019-05-13T14:48:32.871Z,16.40
2019-05-13T14:51:02.257Z,16.30
2019-05-13T14:53:32.241Z,16.30
2019-05-13T14:56:02.962Z,16.30
2019-05-13T14:58:32.796Z,16.00
2019-05-13T15:01:12.494Z,16.10
2019-05-13T15:03:32.774Z,16.20
2019-05-13T15:06:02.177Z,16.10
2019-05-13T15:08:32.891Z,16.00
2019-05-13T15:11:02.187Z,15.90
2019-05-13T15:13:31.937Z,15.90
2019-05-13T15:16:01.205Z,15.80
2019-05-13T15:18:32.275Z,15.70
2019-05-13T15:21:01.724Z,15.90
2019-05-13T15:23:31.736Z,15.80
2019-05-13T15:26:02.279Z,15.70
2019-05-13T15:28:31.856Z,15.80
2019-05-13T15:31:01.134Z,15.50
2019-05-13T15:33:32.620Z,15.40
2019-05-13T15:36:02.106Z,15.50
2019-05-13T15:38:32.072Z,15.80
2019-05-13T15:41:02.032Z,16.00
2019-05-13T15:43:31.834Z,16.00
2019-05-13T15:46:01.710Z,15.90
2019-05-13T15:48:31.533Z,16.10
2019-05-13T15:51:02.091Z,16.20
2019-05-13T15:53:32.082Z,15.80
2019-05-13T15:56:02.702Z,15.60
2019-05-13T15:58:41.010Z,15.80
2019-05-13T16:01:03.289Z,15.90
2019-05-13T16:03:32.236Z,15.70
2019-05-13T16:06:01.658Z,15.70
2019-05-13T16:08:31.865Z,15.80
2019-05-13T16:11:02.139Z,15.90
2019-05-13T16:13:31.971Z,15.80
2019-05-13T16:16:01.674Z,15.80
2019-05-13T16:18:31.697Z,15.80
2019-05-13T16:21:01.719Z,15.80
2019-05-13T16:23:32.510Z,15.70
2019-05-13T16:26:01.821Z,15.60
2019-05-13T16:28:32.584Z,15.50
2019-05-13T16:31:02.274Z,15.50
2019-05-13T16:33:31.510Z,15.50
2019-05-13T16:36:02.617Z,15.30
2019-05-13T16:38:32.885Z,15.30
2019-05-13T16:41:01.226Z,15.20
2019-05-13T16:43:31.949Z,15.20
2019-05-13T16:46:01.237Z,15.00
2019-05-13T16:48:32.112Z,14.80
2019-05-13T16:51:00.487Z,14.80
2019-05-13T16:53:31.490Z,14.80
2019-05-13T16:56:01.716Z,14.60
2019-05-13T16:58:32.342Z,14.60
2019-05-13T17:01:02.420Z,14.50
2019-05-13T17:03:31.958Z,14.40
2019-05-13T17:06:02.146Z,14.20
2019-05-13T17:08:31.970Z,14.10
2019-05-13T17:11:02.243Z,14.20
2019-05-13T17:13:31.605Z,14.10
2019-05-13T17:16:01.575Z,14.20
2019-05-13T17:18:32.450Z,14.20
2019-05-13T17:21:01.603Z,14.30
2019-05-13T17:23:30.841Z,14.20
2019-05-13T17:26:01.915Z,14.00
2019-05-13T17:28:34.017Z,14.00
2019-05-13T17:31:02.196Z,14.10
2019-05-13T17:33:32.004Z,14.20
2019-05-13T17:36:01.903Z,14.10
2019-05-13T17:38:32.345Z,14.10
2019-05-13T17:41:02.362Z,14.00
2019-05-13T17:43:32.213Z,14.00
2019-05-13T17:46:01.165Z,13.90
2019-05-13T17:48:32.791Z,14.00
2019-05-13T17:51:01.372Z,14.00
2019-05-13T17:53:32.622Z,14.00
2019-05-13T17:56:04.342Z,13.90
2019-05-13T17:58:33.182Z,13.90
2019-05-13T18:01:02.080Z,13.90
2019-05-13T18:03:32.138Z,13.80
2019-05-13T18:06:02.459Z,13.80
2019-05-13T18:08:32.109Z,13.80
2019-05-13T18:11:02.211Z,13.80
2019-05-13T18:13:31.266Z,13.80
2019-05-13T18:16:02.493Z,13.80
2019-05-13T18:18:40.324Z,13.70
2019-05-13T18:21:01.725Z,13.60
2019-05-13T18:23:30.579Z,13.60
2019-05-13T18:26:01.914Z,13.60
2019-05-13T18:28:31.600Z,13.60
2019-05-13T18:31:01.794Z,13.50
2019-05-13T18:33:32.006Z,13.50
2019-05-13T18:36:01.875Z,13.50
2019-05-13T18:38:31.273Z,13.50
2019-05-13T18:41:01.841Z,13.50
2019-05-13T18:43:32.064Z,13.40
2019-05-13T18:46:02.373Z,13.30
2019-05-13T18:48:32.239Z,13.30
2019-05-13T18:51:01.513Z,13.30
2019-05-13T18:53:32.156Z,13.30
2019-05-13T18:56:02.102Z,13.30
2019-05-13T18:58:31.764Z,13.30
2019-05-13T19:01:01.309Z,13.10
2019-05-13T19:03:32.388Z,12.90
2019-05-13T19:06:01.054Z,12.80
2019-05-13T19:08:32.150Z,12.80
2019-05-13T19:11:01.152Z,12.80
2019-05-13T19:13:32.426Z,12.80
2019-05-13T19:16:02.348Z,12.70
2019-05-13T19:18:31.986Z,12.60
2019-05-13T19:21:01.876Z,12.60
2019-05-13T19:23:31.502Z,12.50
2019-05-13T19:26:01.899Z,12.40
2019-05-13T19:28:31.727Z,12.30
2019-05-13T19:31:02.273Z,12.20
2019-05-13T19:33:31.194Z,12.20
2019-05-13T19:36:01.466Z,12.20
2019-05-13T19:38:31.886Z,12.10
2019-05-13T19:41:01.842Z,12.10
2019-05-13T19:43:31.547Z,12.10
2019-05-13T19:46:01.544Z,12.10
2019-05-13T19:48:32.710Z,12.10
2019-05-13T19:51:01.703Z,12.00
2019-05-13T19:53:31.887Z,12.00
2019-05-13T19:56:01.597Z,12.00
2019-05-13T19:58:32.359Z,12.00
2019-05-13T20:01:01.123Z,12.00
2019-05-13T20:03:31.709Z,12.00
2019-05-13T20:06:02.259Z,12.00
2019-05-13T20:08:32.116Z,11.90
2019-05-13T20:11:02.112Z,11.90
2019-05-13T20:13:31.461Z,11.80
2019-05-13T20:16:01.423Z,11.80
2019-05-13T20:18:31.980Z,11.80
2019-05-13T20:21:01.291Z,11.70
2019-05-13T20:23:32.063Z,11.70
2019-05-13T20:26:00.944Z,11.70
2019-05-13T20:28:31.682Z,11.70
2019-05-13T20:31:01.894Z,11.60
2019-05-13T20:33:32.068Z,11.60
2019-05-13T20:36:01.547Z,11.50
2019-05-13T20:38:31.645Z,11.50
2019-05-13T20:41:01.325Z,11.50
2019-05-13T20:43:32.519Z,11.40
2019-05-13T20:46:02.061Z,11.30
2019-05-13T20:48:32.061Z,11.20
2019-05-13T20:51:02.588Z,11.10
2019-05-13T20:53:31.604Z,11.00
2019-05-13T20:56:01.769Z,10.90
2019-05-13T20:58:31.907Z,10.80
2019-05-13T21:01:02.380Z,10.80
2019-05-13T21:03:31.721Z,10.70
2019-05-13T21:06:00.891Z,10.60
2019-05-13T21:08:32.118Z,10.50
2019-05-13T21:11:02.393Z,10.50
2019-05-13T21:13:33.995Z,10.40
2019-05-13T21:16:02.682Z,10.40
2019-05-13T21:18:31.725Z,10.30
2019-05-13T21:21:00.538Z,10.30
2019-05-13T21:23:31.156Z,10.20
2019-05-13T21:26:01.605Z,10.30
2019-05-13T21:28:30.553Z,10.20
2019-05-13T21:30:59.335Z,10.20
2019-05-13T21:33:28.246Z,10.10
2019-05-13T21:35:56.934Z,10.10
2019-05-13T21:38:25.646Z,10.10
2019-05-13T21:40:54.346Z,10.10
2019-05-13T21:43:23.509Z,10.10
2019-05-13T21:45:52.478Z,10.10
2019-05-13T21:48:21.831Z,10.00
2019-05-13T21:50:51.618Z,10.00
2019-05-13T21:53:21.746Z,10.00
2019-05-13T21:55:52.055Z,10.00
2019-05-13T21:58:22.233Z,10.00
2019-05-13T22:00:52.826Z,10.00
2019-05-13T22:03:21.722Z,9.90
2019-05-13T22:05:51.546Z,10.00
2019-05-13T22:08:21.643Z,10.00
2019-05-13T22:10:52.518Z,10.00
2019-05-13T22:13:21.908Z,10.10
2019-05-13T22:15:52.390Z,10.10
2019-05-13T22:18:21.334Z,10.10
2019-05-13T22:20:53.389Z,10.20
2019-05-13T22:23:20.839Z,10.30
2019-05-13T22:25:51.928Z,10.40
2019-05-13T22:28:22.124Z,10.50
2019-05-13T22:30:51.784Z,10.50
2019-05-13T22:33:21.601Z,10.50
2019-05-13T22:35:52.274Z,10.50
2019-05-13T22:38:21.492Z,10.50
2019-05-13T22:40:52.048Z,10.60
2019-05-13T22:43:21.289Z,10.60
2019-05-13T22:45:51.120Z,10.60
2019-05-13T22:48:22.290Z,10.60
2019-05-13T22:50:52.196Z,10.60
2019-05-13T22:53:21.176Z,10.60
2019-05-13T22:55:52.112Z,10.60
2019-05-13T22:58:22.500Z,10.60
2019-05-13T23:00:51.793Z,10.60
2019-05-13T23:03:20.755Z,10.60
2019-05-13T23:05:52.048Z,10.50
2019-05-13T23:08:21.712Z,10.50
2019-05-13T23:10:51.438Z,10.40
2019-05-13T23:13:20.342Z,10.30
2019-05-13T23:15:51.501Z,10.30
2019-05-13T23:18:22.031Z,10.20
2019-05-13T23:20:51.607Z,10.10
2019-05-13T23:23:22.110Z,10.00
2019-05-13T23:25:51.186Z,9.90
2019-05-13T23:28:21.665Z,9.80
2019-05-13T23:30:51.148Z,9.80
2019-05-13T23:33:21.995Z,9.70
2019-05-13T23:35:50.814Z,9.60
2019-05-13T23:38:21.453Z,9.60
2019-05-13T23:40:51.562Z,9.60
2019-05-13T23:43:21.745Z,9.60
2019-05-13T23:45:51.128Z,9.60
2019-05-13T23:48:21.630Z,9.50
2019-05-13T23:50:52.138Z,9.50
2019-05-13T23:53:21.897Z,9.50
2019-05-13T23:55:52.064Z,9.40
2019-05-13T23:58:21.813Z,9.40
